sensor_id;sensor_type;location;lat;lon;timestamp;P1;durP1;ratioP1;P2;durP2;ratioP2
50631;SDS011;49583;45.590;-122.498;2023-09-19T00:02:01;6.50;;;1.80;;
50631;SDS011;49583;45.590;-122.498;2023-09-19T00:04:16;5.50;;;1.40;;
50631;SDS011;49583;45.590;-122.498;2023-09-19T00:06:36;7.00;;;1.60;;
50631;SDS011;49583;45.590;-122.498;2023-09-19T00:08:50;4.10;;;1.50;;
50631;SDS011;49583;45.590;-122.498;2023-09-19T00:11:02;8.80;;;1.90;;
50631;SDS011;49583;45.590;-122.498;2023-09-19T00:13:16;8.30;;;2.30;;
50631;SDS011;49583;45.590;-122.498;2023-09-19T00:15:29;7.30;;;1.70;;
50631;SDS011;49583;45.590;-122.498;2023-09-19T00:17:46;5.70;;;1.80;;
50631;SDS011;49583;45.590;-122.498;2023-09-19T00:20:01;4.20;;;1.80;;
50631;SDS011;49583;45.590;-122.498;2023-09-19T00:22:19;7.20;;;2.00;;
50631;SDS011;49583;45.590;-122.498;2023-09-19T00:24:34;20.50;;;1.70;;
50631;SDS011;49583;45.590;-122.498;2023-09-19T00:26:47;9.50;;;1.70;;
50631;SDS011;49583;45.590;-122.498;2023-09-19T00:29:01;10.40;;;2.10;;
50631;SDS011;49583;45.590;-122.498;2023-09-19T00:31:16;6.80;;;1.80;;
50631;SDS011;49583;45.590;-122.498;2023-09-19T00:33:33;4.30;;;1.30;;
50631;SDS011;49583;45.590;-122.498;2023-09-19T00:35:48;6.70;;;1.60;;
50631;SDS011;49583;45.590;-122.498;2023-09-19T00:38:02;10.40;;;1.70;;
50631;SDS011;49583;45.590;-122.498;2023-09-19T00:40:15;4.40;;;1.50;;
50631;SDS011;49583;45.590;-122.498;2023-09-19T00:42:29;6.40;;;1.70;;
50631;SDS011;49583;45.590;-122.498;2023-09-19T00:44:42;8.80;;;1.60;;
50631;SDS011;49583;45.590;-122.498;2023-09-19T00:46:55;9.50;;;1.90;;
50631;SDS011;49583;45.590;-122.498;2023-09-19T00:49:09;7.50;;;1.60;;
50631;SDS011;49583;45.590;-122.498;2023-09-19T00:51:22;4.20;;;1.20;;
50631;SDS011;49583;45.590;-122.498;2023-09-19T00:53:37;4.80;;;1.30;;
50631;SDS011;49583;45.590;-122.498;2023-09-19T00:55:53;6.60;;;1.50;;
50631;SDS011;49583;45.590;-122.498;2023-09-19T00:58:09;5.70;;;1.20;;
50631;SDS011;49583;45.590;-122.498;2023-09-19T01:00:22;7.60;;;1.50;;
50631;SDS011;49583;45.590;-122.498;2023-09-19T01:02:35;3.10;;;1.40;;
50631;SDS011;49583;45.590;-122.498;2023-09-19T01:04:48;5.90;;;1.20;;
50631;SDS011;49583;45.590;-122.498;2023-09-19T01:07:01;3.40;;;1.30;;
50631;SDS011;49583;45.590;-122.498;2023-09-19T01:09:14;5.50;;;1.20;;
50631;SDS011;49583;45.590;-122.498;2023-09-19T01:11:28;6.80;;;2.00;;
50631;SDS011;49583;45.590;-122.498;2023-09-19T01:13:54;6.10;;;1.50;;
50631;SDS011;49583;45.590;-122.498;2023-09-19T01:16:16;5.40;;;1.60;;
50631;SDS011;49583;45.590;-122.498;2023-09-19T01:18:39;4.20;;;1.30;;
50631;SDS011;49583;45.590;-122.498;2023-09-19T01:21:03;5.00;;;1.30;;
50631;SDS011;49583;45.590;-122.498;2023-09-19T01:23:23;5.10;;;1.80;;
50631;SDS011;49583;45.590;-122.498;2023-09-19T01:25:55;4.00;;;1.20;;
50631;SDS011;49583;45.590;-122.498;2023-09-19T01:28:24;4.60;;;1.40;;
50631;SDS011;49583;45.590;-122.498;2023-09-19T01:30:46;4.90;;;1.40;;
50631;SDS011;49583;45.590;-122.498;2023-09-19T01:33:04;4.40;;;1.20;;
50631;SDS011;49583;45.590;-122.498;2023-09-19T01:35:18;5.50;;;1.40;;
50631;SDS011;49583;45.590;-122.498;2023-09-19T01:37:31;4.00;;;1.30;;
50631;SDS011;49583;45.590;-122.498;2023-09-19T01:39:45;6.00;;;1.60;;
50631;SDS011;49583;45.590;-122.498;2023-09-19T01:42:01;6.50;;;1.60;;
50631;SDS011;49583;45.590;-122.498;2023-09-19T01:44:21;10.70;;;2.50;;
50631;SDS011;49583;45.590;-122.498;2023-09-19T01:46:41;8.90;;;1.60;;
50631;SDS011;49583;45.590;-122.498;2023-09-19T01:49:03;7.20;;;1.70;;
50631;SDS011;49583;45.590;-122.498;2023-09-19T01:51:28;9.20;;;1.80;;
50631;SDS011;49583;45.590;-122.498;2023-09-19T01:54:04;9.20;;;2.20;;
50631;SDS011;49583;45.590;-122.498;2023-09-19T01:56:23;10.10;;;1.80;;
50631;SDS011;49583;45.590;-122.498;2023-09-19T01:58:44;8.40;;;2.10;;
50631;SDS011;49583;45.590;-122.498;2023-09-19T02:01:00;6.20;;;1.70;;
50631;SDS011;49583;45.590;-122.498;2023-09-19T02:03:16;8.40;;;1.70;;
50631;SDS011;49583;45.590;-122.498;2023-09-19T02:05:30;4.30;;;1.30;;
50631;SDS011;49583;45.590;-122.498;2023-09-19T02:07:43;8.80;;;1.40;;
50631;SDS011;49583;45.590;-122.498;2023-09-19T02:09:56;6.00;;;1.50;;
50631;SDS011;49583;45.590;-122.498;2023-09-19T02:12:11;4.50;;;1.80;;
50631;SDS011;49583;45.590;-122.498;2023-09-19T02:14:24;7.10;;;1.70;;
50631;SDS011;49583;45.590;-122.498;2023-09-19T02:16:37;7.70;;;2.30;;
50631;SDS011;49583;45.590;-122.498;2023-09-19T02:18:50;5.80;;;1.50;;
50631;SDS011;49583;45.590;-122.498;2023-09-19T02:21:03;5.60;;;1.60;;
50631;SDS011;49583;45.590;-122.498;2023-09-19T02:23:17;5.10;;;1.30;;
50631;SDS011;49583;45.590;-122.498;2023-09-19T02:25:30;5.50;;;1.70;;
50631;SDS011;49583;45.590;-122.498;2023-09-19T02:27:43;7.00;;;1.90;;
50631;SDS011;49583;45.590;-122.498;2023-09-19T02:29:57;7.30;;;1.70;;
50631;SDS011;49583;45.590;-122.498;2023-09-19T02:32:11;9.50;;;1.60;;
50631;SDS011;49583;45.590;-122.498;2023-09-19T02:34:27;3.20;;;1.20;;
50631;SDS011;49583;45.590;-122.498;2023-09-19T02:36:41;6.80;;;1.90;;
50631;SDS011;49583;45.590;-122.498;2023-09-19T02:38:55;7.90;;;2.20;;
50631;SDS011;49583;45.590;-122.498;2023-09-19T02:41:08;4.70;;;1.90;;
50631;SDS011;49583;45.590;-122.498;2023-09-19T02:43:21;6.10;;;1.60;;
50631;SDS011;49583;45.590;-122.498;2023-09-19T02:45:34;6.50;;;1.70;;
50631;SDS011;49583;45.590;-122.498;2023-09-19T02:47:47;5.50;;;1.50;;
50631;SDS011;49583;45.590;-122.498;2023-09-19T02:49:59;8.10;;;2.00;;
50631;SDS011;49583;45.590;-122.498;2023-09-19T02:52:13;4.40;;;1.70;;
50631;SDS011;49583;45.590;-122.498;2023-09-19T02:54:27;7.10;;;2.10;;
50631;SDS011;49583;45.590;-122.498;2023-09-19T02:56:40;7.50;;;1.50;;
50631;SDS011;49583;45.590;-122.498;2023-09-19T02:58:52;7.50;;;1.80;;
50631;SDS011;49583;45.590;-122.498;2023-09-19T03:01:12;4.60;;;1.80;;
50631;SDS011;49583;45.590;-122.498;2023-09-19T03:03:26;7.70;;;2.50;;
50631;SDS011;49583;45.590;-122.498;2023-09-19T03:05:39;5.10;;;1.80;;
50631;SDS011;49583;45.590;-122.498;2023-09-19T03:08:00;8.10;;;1.70;;
50631;SDS011;49583;45.590;-122.498;2023-09-19T03:10:14;3.60;;;1.30;;
50631;SDS011;49583;45.590;-122.498;2023-09-19T03:12:27;6.20;;;1.90;;
50631;SDS011;49583;45.590;-122.498;2023-09-19T03:14:44;6.40;;;1.50;;
50631;SDS011;49583;45.590;-122.498;2023-09-19T03:16:58;10.70;;;1.50;;
50631;SDS011;49583;45.590;-122.498;2023-09-19T03:19:12;8.70;;;2.30;;
50631;SDS011;49583;45.590;-122.498;2023-09-19T03:21:25;12.70;;;2.20;;
50631;SDS011;49583;45.590;-122.498;2023-09-19T03:23:38;3.90;;;1.40;;
50631;SDS011;49583;45.590;-122.498;2023-09-19T03:25:53;5.90;;;1.70;;
50631;SDS011;49583;45.590;-122.498;2023-09-19T03:28:07;5.40;;;1.40;;
50631;SDS011;49583;45.590;-122.498;2023-09-19T03:30:20;5.60;;;2.30;;
50631;SDS011;49583;45.590;-122.498;2023-09-19T03:32:37;5.50;;;1.60;;
50631;SDS011;49583;45.590;-122.498;2023-09-19T03:34:58;9.40;;;1.60;;
50631;SDS011;49583;45.590;-122.498;2023-09-19T03:37:13;5.60;;;1.50;;
50631;SDS011;49583;45.590;-122.498;2023-09-19T03:39:26;6.90;;;1.70;;
50631;SDS011;49583;45.590;-122.498;2023-09-19T03:41:40;7.30;;;1.90;;
50631;SDS011;49583;45.590;-122.498;2023-09-19T03:43:52;10.70;;;2.00;;
50631;SDS011;49583;45.590;-122.498;2023-09-19T03:46:06;6.40;;;2.00;;
50631;SDS011;49583;45.590;-122.498;2023-09-19T03:48:25;7.90;;;1.60;;
50631;SDS011;49583;45.590;-122.498;2023-09-19T03:50:39;4.80;;;2.30;;
50631;SDS011;49583;45.590;-122.498;2023-09-19T03:52:51;9.50;;;1.90;;
50631;SDS011;49583;45.590;-122.498;2023-09-19T03:55:10;8.90;;;1.70;;
50631;SDS011;49583;45.590;-122.498;2023-09-19T03:57:23;7.10;;;1.60;;
50631;SDS011;49583;45.590;-122.498;2023-09-19T03:59:40;6.10;;;1.60;;
50631;SDS011;49583;45.590;-122.498;2023-09-19T04:01:54;10.80;;;1.90;;
50631;SDS011;49583;45.590;-122.498;2023-09-19T04:04:08;8.80;;;2.30;;
50631;SDS011;49583;45.590;-122.498;2023-09-19T04:06:22;11.90;;;1.60;;
50631;SDS011;49583;45.590;-122.498;2023-09-19T04:08:35;6.80;;;2.30;;
50631;SDS011;49583;45.590;-122.498;2023-09-19T04:10:47;4.10;;;1.30;;
50631;SDS011;49583;45.590;-122.498;2023-09-19T04:13:00;11.20;;;2.00;;
50631;SDS011;49583;45.590;-122.498;2023-09-19T04:15:15;5.10;;;1.60;;
50631;SDS011;49583;45.590;-122.498;2023-09-19T04:17:32;6.70;;;2.10;;
50631;SDS011;49583;45.590;-122.498;2023-09-19T04:19:45;6.10;;;1.70;;
50631;SDS011;49583;45.590;-122.498;2023-09-19T04:21:58;6.50;;;1.60;;
50631;SDS011;49583;45.590;-122.498;2023-09-19T04:24:11;5.70;;;1.80;;
50631;SDS011;49583;45.590;-122.498;2023-09-19T04:26:27;6.50;;;1.70;;
50631;SDS011;49583;45.590;-122.498;2023-09-19T04:28:40;8.30;;;1.90;;
50631;SDS011;49583;45.590;-122.498;2023-09-19T04:30:57;5.00;;;1.80;;
50631;SDS011;49583;45.590;-122.498;2023-09-19T04:33:09;8.20;;;1.90;;
50631;SDS011;49583;45.590;-122.498;2023-09-19T04:35:23;6.20;;;1.70;;
50631;SDS011;49583;45.590;-122.498;2023-09-19T04:37:38;5.50;;;1.60;;
50631;SDS011;49583;45.590;-122.498;2023-09-19T04:39:51;7.70;;;1.70;;
50631;SDS011;49583;45.590;-122.498;2023-09-19T04:42:08;4.60;;;1.60;;
50631;SDS011;49583;45.590;-122.498;2023-09-19T04:44:22;8.00;;;1.60;;
50631;SDS011;49583;45.590;-122.498;2023-09-19T04:46:35;6.80;;;1.50;;
50631;SDS011;49583;45.590;-122.498;2023-09-19T04:48:51;7.20;;;1.50;;
50631;SDS011;49583;45.590;-122.498;2023-09-19T04:51:04;5.20;;;1.60;;
50631;SDS011;49583;45.590;-122.498;2023-09-19T04:53:18;8.30;;;1.60;;
50631;SDS011;49583;45.590;-122.498;2023-09-19T04:55:31;4.70;;;1.50;;
50631;SDS011;49583;45.590;-122.498;2023-09-19T04:57:44;4.60;;;1.80;;
50631;SDS011;49583;45.590;-122.498;2023-09-19T04:59:57;9.70;;;1.40;;
50631;SDS011;49583;45.590;-122.498;2023-09-19T05:02:10;6.40;;;1.70;;
50631;SDS011;49583;45.590;-122.498;2023-09-19T05:04:26;7.70;;;2.10;;
50631;SDS011;49583;45.590;-122.498;2023-09-19T05:06:40;5.90;;;1.50;;
50631;SDS011;49583;45.590;-122.498;2023-09-19T05:08:53;7.90;;;1.80;;
50631;SDS011;49583;45.590;-122.498;2023-09-19T05:11:07;5.90;;;1.30;;
50631;SDS011;49583;45.590;-122.498;2023-09-19T05:13:20;5.60;;;1.50;;
50631;SDS011;49583;45.590;-122.498;2023-09-19T05:15:35;8.00;;;1.30;;
50631;SDS011;49583;45.590;-122.498;2023-09-19T05:17:49;9.00;;;1.30;;
50631;SDS011;49583;45.590;-122.498;2023-09-19T05:20:07;6.80;;;1.70;;
50631;SDS011;49583;45.590;-122.498;2023-09-19T05:22:35;4.90;;;1.40;;
50631;SDS011;49583;45.590;-122.498;2023-09-19T05:24:48;9.10;;;2.00;;
50631;SDS011;49583;45.590;-122.498;2023-09-19T05:27:02;5.60;;;1.40;;
50631;SDS011;49583;45.590;-122.498;2023-09-19T05:29:15;6.00;;;1.60;;
50631;SDS011;49583;45.590;-122.498;2023-09-19T05:31:28;6.90;;;1.90;;
50631;SDS011;49583;45.590;-122.498;2023-09-19T05:33:41;9.30;;;2.00;;
50631;SDS011;49583;45.590;-122.498;2023-09-19T05:35:53;10.60;;;2.30;;
50631;SDS011;49583;45.590;-122.498;2023-09-19T05:38:10;10.70;;;1.70;;
50631;SDS011;49583;45.590;-122.498;2023-09-19T05:40:29;6.00;;;1.40;;
50631;SDS011;49583;45.590;-122.498;2023-09-19T05:42:42;6.40;;;1.10;;
50631;SDS011;49583;45.590;-122.498;2023-09-19T05:44:57;8.90;;;1.70;;
50631;SDS011;49583;45.590;-122.498;2023-09-19T05:47:16;10.80;;;1.90;;
50631;SDS011;49583;45.590;-122.498;2023-09-19T05:49:34;8.10;;;1.70;;
50631;SDS011;49583;45.590;-122.498;2023-09-19T05:51:48;6.20;;;1.50;;
50631;SDS011;49583;45.590;-122.498;2023-09-19T05:54:02;6.10;;;1.50;;
50631;SDS011;49583;45.590;-122.498;2023-09-19T05:56:15;7.80;;;1.70;;
50631;SDS011;49583;45.590;-122.498;2023-09-19T05:58:28;7.50;;;1.80;;
50631;SDS011;49583;45.590;-122.498;2023-09-19T06:00:41;8.60;;;2.00;;
50631;SDS011;49583;45.590;-122.498;2023-09-19T06:02:58;10.80;;;2.00;;
50631;SDS011;49583;45.590;-122.498;2023-09-19T06:05:11;6.30;;;2.10;;
50631;SDS011;49583;45.590;-122.498;2023-09-19T06:07:24;6.20;;;1.60;;
50631;SDS011;49583;45.590;-122.498;2023-09-19T06:09:47;6.70;;;1.80;;
50631;SDS011;49583;45.590;-122.498;2023-09-19T06:12:00;6.50;;;1.80;;
50631;SDS011;49583;45.590;-122.498;2023-09-19T06:14:16;8.50;;;2.40;;
50631;SDS011;49583;45.590;-122.498;2023-09-19T06:16:32;5.30;;;1.50;;
50631;SDS011;49583;45.590;-122.498;2023-09-19T06:18:45;7.40;;;1.90;;
50631;SDS011;49583;45.590;-122.498;2023-09-19T06:21:00;10.00;;;2.00;;
50631;SDS011;49583;45.590;-122.498;2023-09-19T06:23:15;6.80;;;1.80;;
50631;SDS011;49583;45.590;-122.498;2023-09-19T06:25:29;7.60;;;1.80;;
50631;SDS011;49583;45.590;-122.498;2023-09-19T06:27:42;11.50;;;1.90;;
50631;SDS011;49583;45.590;-122.498;2023-09-19T06:29:55;5.90;;;1.60;;
50631;SDS011;49583;45.590;-122.498;2023-09-19T06:32:09;7.70;;;1.70;;
50631;SDS011;49583;45.590;-122.498;2023-09-19T06:34:22;6.90;;;1.40;;
50631;SDS011;49583;45.590;-122.498;2023-09-19T06:36:35;9.90;;;1.80;;
50631;SDS011;49583;45.590;-122.498;2023-09-19T06:38:50;8.10;;;1.70;;
50631;SDS011;49583;45.590;-122.498;2023-09-19T06:41:03;11.90;;;2.00;;
50631;SDS011;49583;45.590;-122.498;2023-09-19T06:43:16;9.80;;;1.70;;
50631;SDS011;49583;45.590;-122.498;2023-09-19T06:45:29;8.50;;;2.30;;
50631;SDS011;49583;45.590;-122.498;2023-09-19T06:47:42;11.10;;;1.80;;
50631;SDS011;49583;45.590;-122.498;2023-09-19T06:50:02;7.30;;;1.80;;
50631;SDS011;49583;45.590;-122.498;2023-09-19T06:52:21;9.30;;;2.60;;
50631;SDS011;49583;45.590;-122.498;2023-09-19T06:54:37;13.20;;;1.60;;
50631;SDS011;49583;45.590;-122.498;2023-09-19T06:56:51;12.70;;;1.80;;
50631;SDS011;49583;45.590;-122.498;2023-09-19T06:59:04;7.90;;;2.00;;
50631;SDS011;49583;45.590;-122.498;2023-09-19T07:01:17;9.60;;;3.00;;
50631;SDS011;49583;45.590;-122.498;2023-09-19T07:03:33;13.20;;;2.10;;
50631;SDS011;49583;45.590;-122.498;2023-09-19T07:05:48;7.90;;;1.80;;
50631;SDS011;49583;45.590;-122.498;2023-09-19T07:08:07;11.60;;;1.70;;
50631;SDS011;49583;45.590;-122.498;2023-09-19T07:10:20;9.90;;;2.60;;
50631;SDS011;49583;45.590;-122.498;2023-09-19T07:12:34;15.40;;;2.10;;
50631;SDS011;49583;45.590;-122.498;2023-09-19T07:14:58;12.50;;;2.00;;
50631;SDS011;49583;45.590;-122.498;2023-09-19T07:17:13;11.50;;;1.90;;
50631;SDS011;49583;45.590;-122.498;2023-09-19T07:19:30;10.10;;;2.00;;
50631;SDS011;49583;45.590;-122.498;2023-09-19T07:21:43;14.40;;;2.30;;
50631;SDS011;49583;45.590;-122.498;2023-09-19T07:23:59;9.20;;;2.20;;
50631;SDS011;49583;45.590;-122.498;2023-09-19T07:26:11;8.90;;;2.50;;
50631;SDS011;49583;45.590;-122.498;2023-09-19T07:28:24;11.10;;;2.20;;
50631;SDS011;49583;45.590;-122.498;2023-09-19T07:30:40;10.20;;;2.30;;
50631;SDS011;49583;45.590;-122.498;2023-09-19T07:32:53;8.40;;;1.80;;
50631;SDS011;49583;45.590;-122.498;2023-09-19T07:35:06;11.10;;;2.10;;
50631;SDS011;49583;45.590;-122.498;2023-09-19T07:37:21;12.50;;;1.80;;
50631;SDS011;49583;45.590;-122.498;2023-09-19T07:39:34;13.60;;;2.20;;
50631;SDS011;49583;45.590;-122.498;2023-09-19T07:41:48;11.80;;;1.90;;
50631;SDS011;49583;45.590;-122.498;2023-09-19T07:44:05;7.70;;;2.10;;
50631;SDS011;49583;45.590;-122.498;2023-09-19T07:46:18;9.10;;;2.20;;
50631;SDS011;49583;45.590;-122.498;2023-09-19T07:48:38;10.40;;;2.10;;
50631;SDS011;49583;45.590;-122.498;2023-09-19T07:51:00;14.50;;;3.10;;
50631;SDS011;49583;45.590;-122.498;2023-09-19T07:53:14;10.50;;;2.20;;
50631;SDS011;49583;45.590;-122.498;2023-09-19T07:55:29;16.10;;;2.20;;
50631;SDS011;49583;45.590;-122.498;2023-09-19T07:57:42;11.20;;;2.00;;
50631;SDS011;49583;45.590;-122.498;2023-09-19T07:59:59;7.80;;;1.60;;
50631;SDS011;49583;45.590;-122.498;2023-09-19T08:02:18;14.60;;;1.90;;
50631;SDS011;49583;45.590;-122.498;2023-09-19T08:04:31;7.60;;;2.10;;
50631;SDS011;49583;45.590;-122.498;2023-09-19T08:06:44;11.00;;;2.70;;
50631;SDS011;49583;45.590;-122.498;2023-09-19T08:08:59;16.60;;;2.20;;
50631;SDS011;49583;45.590;-122.498;2023-09-19T08:11:15;11.10;;;2.20;;
50631;SDS011;49583;45.590;-122.498;2023-09-19T08:13:28;10.40;;;2.30;;
50631;SDS011;49583;45.590;-122.498;2023-09-19T08:15:51;13.90;;;2.30;;
50631;SDS011;49583;45.590;-122.498;2023-09-19T08:18:04;7.00;;;1.80;;
50631;SDS011;49583;45.590;-122.498;2023-09-19T08:20:20;8.50;;;1.80;;
50631;SDS011;49583;45.590;-122.498;2023-09-19T08:22:32;8.50;;;2.40;;
50631;SDS011;49583;45.590;-122.498;2023-09-19T08:24:45;16.90;;;2.70;;
50631;SDS011;49583;45.590;-122.498;2023-09-19T08:26:58;14.30;;;2.40;;
50631;SDS011;49583;45.590;-122.498;2023-09-19T08:29:23;11.00;;;2.10;;
50631;SDS011;49583;45.590;-122.498;2023-09-19T08:31:39;8.50;;;1.90;;
50631;SDS011;49583;45.590;-122.498;2023-09-19T08:33:52;10.30;;;1.50;;
50631;SDS011;49583;45.590;-122.498;2023-09-19T08:36:06;7.70;;;2.00;;
50631;SDS011;49583;45.590;-122.498;2023-09-19T08:38:24;14.70;;;2.30;;
50631;SDS011;49583;45.590;-122.498;2023-09-19T08:40:38;9.00;;;2.10;;
50631;SDS011;49583;45.590;-122.498;2023-09-19T08:42:51;7.90;;;1.90;;
50631;SDS011;49583;45.590;-122.498;2023-09-19T08:45:07;7.70;;;2.20;;
50631;SDS011;49583;45.590;-122.498;2023-09-19T08:47:21;10.10;;;2.00;;
50631;SDS011;49583;45.590;-122.498;2023-09-19T08:49:47;12.00;;;2.80;;
50631;SDS011;49583;45.590;-122.498;2023-09-19T08:52:13;10.60;;;2.40;;
50631;SDS011;49583;45.590;-122.498;2023-09-19T08:54:32;10.50;;;1.80;;
50631;SDS011;49583;45.590;-122.498;2023-09-19T08:56:48;6.90;;;1.70;;
50631;SDS011;49583;45.590;-122.498;2023-09-19T08:59:06;13.20;;;1.90;;
50631;SDS011;49583;45.590;-122.498;2023-09-19T09:01:20;17.90;;;2.90;;
50631;SDS011;49583;45.590;-122.498;2023-09-19T09:03:38;21.20;;;2.60;;
50631;SDS011;49583;45.590;-122.498;2023-09-19T09:05:55;7.00;;;1.90;;
50631;SDS011;49583;45.590;-122.498;2023-09-19T09:08:09;12.90;;;2.10;;
50631;SDS011;49583;45.590;-122.498;2023-09-19T09:10:24;6.40;;;2.40;;
50631;SDS011;49583;45.590;-122.498;2023-09-19T09:12:37;6.70;;;1.90;;
50631;SDS011;49583;45.590;-122.498;2023-09-19T09:14:51;12.60;;;2.10;;
50631;SDS011;49583;45.590;-122.498;2023-09-19T09:17:05;12.70;;;2.30;;
50631;SDS011;49583;45.590;-122.498;2023-09-19T09:19:18;8.50;;;2.40;;
50631;SDS011;49583;45.590;-122.498;2023-09-19T09:21:32;9.60;;;2.20;;
50631;SDS011;49583;45.590;-122.498;2023-09-19T09:23:46;9.90;;;2.30;;
50631;SDS011;49583;45.590;-122.498;2023-09-19T09:26:00;6.80;;;2.20;;
50631;SDS011;49583;45.590;-122.498;2023-09-19T09:28:13;9.80;;;2.10;;
50631;SDS011;49583;45.590;-122.498;2023-09-19T09:30:34;8.10;;;1.80;;
50631;SDS011;49583;45.590;-122.498;2023-09-19T09:32:47;8.20;;;1.80;;
50631;SDS011;49583;45.590;-122.498;2023-09-19T09:35:20;6.40;;;1.70;;
50631;SDS011;49583;45.590;-122.498;2023-09-19T09:37:34;10.30;;;2.30;;
50631;SDS011;49583;45.590;-122.498;2023-09-19T09:39:53;8.90;;;2.20;;
50631;SDS011;49583;45.590;-122.498;2023-09-19T09:42:09;8.70;;;2.10;;
50631;SDS011;49583;45.590;-122.498;2023-09-19T09:44:42;6.40;;;1.70;;
50631;SDS011;49583;45.590;-122.498;2023-09-19T09:47:22;10.90;;;2.20;;
50631;SDS011;49583;45.590;-122.498;2023-09-19T09:52:24;9.10;;;1.90;;
50631;SDS011;49583;45.590;-122.498;2023-09-19T09:54:39;10.00;;;2.40;;
50631;SDS011;49583;45.590;-122.498;2023-09-19T09:57:13;9.80;;;2.00;;
50631;SDS011;49583;45.590;-122.498;2023-09-19T10:02:06;9.20;;;2.00;;
50631;SDS011;49583;45.590;-122.498;2023-09-19T10:04:28;8.90;;;1.80;;
50631;SDS011;49583;45.590;-122.498;2023-09-19T10:06:47;11.80;;;2.00;;
50631;SDS011;49583;45.590;-122.498;2023-09-19T10:09:05;7.60;;;1.50;;
50631;SDS011;49583;45.590;-122.498;2023-09-19T10:11:24;6.30;;;1.80;;
50631;SDS011;49583;45.590;-122.498;2023-09-19T10:13:38;10.20;;;2.40;;
50631;SDS011;49583;45.590;-122.498;2023-09-19T10:15:57;9.90;;;2.40;;
50631;SDS011;49583;45.590;-122.498;2023-09-19T10:18:18;10.90;;;2.10;;
50631;SDS011;49583;45.590;-122.498;2023-09-19T10:20:36;14.80;;;2.50;;
50631;SDS011;49583;45.590;-122.498;2023-09-19T10:23:03;11.90;;;3.40;;
50631;SDS011;49583;45.590;-122.498;2023-09-19T10:25:22;10.90;;;2.00;;
50631;SDS011;49583;45.590;-122.498;2023-09-19T10:27:38;11.80;;;2.40;;
50631;SDS011;49583;45.590;-122.498;2023-09-19T10:29:53;13.80;;;2.10;;
50631;SDS011;49583;45.590;-122.498;2023-09-19T10:32:32;16.20;;;2.40;;
50631;SDS011;49583;45.590;-122.498;2023-09-19T10:37:02;8.00;;;1.70;;
50631;SDS011;49583;45.590;-122.498;2023-09-19T10:39:17;14.30;;;2.30;;
50631;SDS011;49583;45.590;-122.498;2023-09-19T10:41:29;9.90;;;1.60;;
50631;SDS011;49583;45.590;-122.498;2023-09-19T10:43:44;6.50;;;1.70;;
50631;SDS011;49583;45.590;-122.498;2023-09-19T10:46:00;12.20;;;1.90;;
50631;SDS011;49583;45.590;-122.498;2023-09-19T10:48:18;10.00;;;2.10;;
50631;SDS011;49583;45.590;-122.498;2023-09-19T10:50:44;12.30;;;2.30;;
50631;SDS011;49583;45.590;-122.498;2023-09-19T10:53:01;6.40;;;2.00;;
50631;SDS011;49583;45.590;-122.498;2023-09-19T10:55:18;7.90;;;1.80;;
50631;SDS011;49583;45.590;-122.498;2023-09-19T10:57:32;8.10;;;1.40;;
50631;SDS011;49583;45.590;-122.498;2023-09-19T11:03:25;6.60;;;1.60;;
50631;SDS011;49583;45.590;-122.498;2023-09-19T11:05:40;11.50;;;2.40;;
50631;SDS011;49583;45.590;-122.498;2023-09-19T11:08:10;14.30;;;2.10;;
50631;SDS011;49583;45.590;-122.498;2023-09-19T11:12:58;7.30;;;2.00;;
50631;SDS011;49583;45.590;-122.498;2023-09-19T11:23:53;10.00;;;1.80;;
50631;SDS011;49583;45.590;-122.498;2023-09-19T11:26:44;8.00;;;1.60;;
50631;SDS011;49583;45.590;-122.498;2023-09-19T11:29:01;8.50;;;1.50;;
50631;SDS011;49583;45.590;-122.498;2023-09-19T11:36:40;10.90;;;1.80;;
50631;SDS011;49583;45.590;-122.498;2023-09-19T11:38:59;7.80;;;2.10;;
50631;SDS011;49583;45.590;-122.498;2023-09-19T11:43:54;12.70;;;2.20;;
50631;SDS011;49583;45.590;-122.498;2023-09-19T11:46:55;8.10;;;1.70;;
50631;SDS011;49583;45.590;-122.498;2023-09-19T11:49:12;12.50;;;2.20;;
50631;SDS011;49583;45.590;-122.498;2023-09-19T11:51:28;7.30;;;2.40;;
50631;SDS011;49583;45.590;-122.498;2023-09-19T11:53:52;23.60;;;2.50;;
50631;SDS011;49583;45.590;-122.498;2023-09-19T11:56:07;11.60;;;2.10;;
50631;SDS011;49583;45.590;-122.498;2023-09-19T11:58:20;8.70;;;2.10;;
50631;SDS011;49583;45.590;-122.498;2023-09-19T12:00:36;12.10;;;2.50;;
50631;SDS011;49583;45.590;-122.498;2023-09-19T12:02:51;9.50;;;1.70;;
50631;SDS011;49583;45.590;-122.498;2023-09-19T12:05:14;9.40;;;2.60;;
50631;SDS011;49583;45.590;-122.498;2023-09-19T12:07:29;8.70;;;2.30;;
50631;SDS011;49583;45.590;-122.498;2023-09-19T12:10:03;15.90;;;2.00;;
50631;SDS011;49583;45.590;-122.498;2023-09-19T12:12:21;9.40;;;2.20;;
50631;SDS011;49583;45.590;-122.498;2023-09-19T12:14:35;13.30;;;2.50;;
50631;SDS011;49583;45.590;-122.498;2023-09-19T12:16:52;9.00;;;2.00;;
50631;SDS011;49583;45.590;-122.498;2023-09-19T12:19:22;8.40;;;1.80;;
50631;SDS011;49583;45.590;-122.498;2023-09-19T12:21:37;9.60;;;2.20;;
50631;SDS011;49583;45.590;-122.498;2023-09-19T12:23:58;13.50;;;2.20;;
50631;SDS011;49583;45.590;-122.498;2023-09-19T12:26:14;10.60;;;1.80;;
50631;SDS011;49583;45.590;-122.498;2023-09-19T12:28:30;10.00;;;1.90;;
50631;SDS011;49583;45.590;-122.498;2023-09-19T12:30:50;6.00;;;1.80;;
50631;SDS011;49583;45.590;-122.498;2023-09-19T12:33:03;8.70;;;1.60;;
50631;SDS011;49583;45.590;-122.498;2023-09-19T12:35:32;6.00;;;1.90;;
50631;SDS011;49583;45.590;-122.498;2023-09-19T12:37:47;8.70;;;2.00;;
50631;SDS011;49583;45.590;-122.498;2023-09-19T12:40:07;6.40;;;2.00;;
50631;SDS011;49583;45.590;-122.498;2023-09-19T12:42:25;7.60;;;1.70;;
50631;SDS011;49583;45.590;-122.498;2023-09-19T12:44:40;7.20;;;2.40;;
50631;SDS011;49583;45.590;-122.498;2023-09-19T12:46:54;9.60;;;2.10;;
50631;SDS011;49583;45.590;-122.498;2023-09-19T12:49:19;15.10;;;2.00;;
50631;SDS011;49583;45.590;-122.498;2023-09-19T12:51:36;7.10;;;1.70;;
50631;SDS011;49583;45.590;-122.498;2023-09-19T12:53:56;4.30;;;1.50;;
50631;SDS011;49583;45.590;-122.498;2023-09-19T12:56:10;10.80;;;2.20;;
50631;SDS011;49583;45.590;-122.498;2023-09-19T12:58:23;11.90;;;2.00;;
50631;SDS011;49583;45.590;-122.498;2023-09-19T13:00:38;8.60;;;1.60;;
50631;SDS011;49583;45.590;-122.498;2023-09-19T13:07:59;8.40;;;1.70;;
50631;SDS011;49583;45.590;-122.498;2023-09-19T13:10:29;11.60;;;1.90;;
50631;SDS011;49583;45.590;-122.498;2023-09-19T13:12:43;6.70;;;1.70;;
50631;SDS011;49583;45.590;-122.498;2023-09-19T13:15:08;10.00;;;1.80;;
50631;SDS011;49583;45.590;-122.498;2023-09-19T13:17:34;6.70;;;2.30;;
50631;SDS011;49583;45.590;-122.498;2023-09-19T13:19:55;7.10;;;1.60;;
50631;SDS011;49583;45.590;-122.498;2023-09-19T13:24:49;10.80;;;2.70;;
50631;SDS011;49583;45.590;-122.498;2023-09-19T13:27:01;8.60;;;2.70;;
50631;SDS011;49583;45.590;-122.498;2023-09-19T13:29:14;13.30;;;3.40;;
50631;SDS011;49583;45.590;-122.498;2023-09-19T13:31:27;10.80;;;3.50;;
50631;SDS011;49583;45.590;-122.498;2023-09-19T13:33:44;10.20;;;3.40;;
50631;SDS011;49583;45.590;-122.498;2023-09-19T13:35:57;14.90;;;4.40;;
50631;SDS011;49583;45.590;-122.498;2023-09-19T13:38:10;10.60;;;4.60;;
50631;SDS011;49583;45.590;-122.498;2023-09-19T13:40:22;9.70;;;4.20;;
50631;SDS011;49583;45.590;-122.498;2023-09-19T13:42:38;15.30;;;5.00;;